This is the latest recevied weather packets stored in our database for station/object N6GPM. If no packets are shown the sender has not sent any weather packets the latest 10 day(s).
| Time | Temp. | Humidity | Pressure | Rain* | Wind** | Luminosity | Snow |
|---|---|---|---|---|---|---|---|
| 1777671272 | 23.33° C | 58% | 1016.4 hPa | 0 mm | - | 690 W/m² | - |
| 1777670967 | 23.33° C | 57% | 1016.3 hPa | 0 mm | - | 673 W/m² | - |
| 1777670664 | 23.33° C | 56% | 1016.3 hPa | 0 mm | - | 683 W/m² | - |
| 1777670361 | 22.78° C | 57% | 1016.2 hPa | 0 mm | - | 669 W/m² | - |
| 1777670058 | 23.33° C | 56% | 1016.5 hPa | 0 mm | - | 675 W/m² | - |
| 1777669756 | 23.33° C | 57% | 1016.8 hPa | 0 mm | - | 711 W/m² | - |
| 1777669452 | 23.89° C | 56% | 1016.8 hPa | 0 mm | - | 700 W/m² | - |
| 1777669149 | 23.33° C | 56% | 1016.6 hPa | 0 mm | - | 706 W/m² | - |
| 1777668846 | 22.78° C | 56% | 1016.5 hPa | 0 mm | - | 709 W/m² | - |
| 1777668543 | 22.78° C | 56% | 1016.6 hPa | 0 mm | - | 688 W/m² | - |
| 1777668239 | 22.22° C | 59% | 1016.7 hPa | 0 mm | - | 654 W/m² | - |
| 1777667935 | 22.78° C | 59% | 1016.8 hPa | 0 mm | - | 657 W/m² | - |
| 1777667632 | 21.67° C | 63% | 1016.9 hPa | 0 mm | - | 652 W/m² | - |
| 1777667329 | 21.67° C | 61% | 1017.2 hPa | 0 mm | - | 701 W/m² | - |
| 1777667026 | 21.67° C | 62% | 1016.8 hPa | 0 mm | - | 753 W/m² | - |
| 1777666723 | 21.67° C | 63% | 1016.9 hPa | 0 mm | - | 745 W/m² | - |
| 1777666420 | 21.67° C | 63% | 1016.6 hPa | 0 mm | - | 725 W/m² | - |
| 1777666116 | 21.11° C | 64% | 1017.2 hPa | 0 mm | - | 736 W/m² | - |
| 1777665814 | 21.11° C | 65% | 1017 hPa | 0 mm | - | 726 W/m² | - |
| 1777665512 | 21.11° C | 65% | 1016.9 hPa | 0 mm | - | 738 W/m² | - |
| 1777665207 | 21.11° C | 65% | 1017 hPa | 0 mm | - | 740 W/m² | - |
| 1777664903 | 21.67° C | 65% | 1017 hPa | 0 mm | - | 737 W/m² | - |
| 1777664600 | 20.56° C | 65% | 1017.2 hPa | 0 mm | - | 759 W/m² | - |
| 1777664296 | 21.11° C | 65% | 1017.4 hPa | 0 mm | - | 755 W/m² | - |
| 1777663995 | 20.56° C | 65% | 1017.3 hPa | 0 mm | - | 758 W/m² | - |
* Rain latest hour (hover to see other rain measurements)
** Current wind speed in m/s (hover to see current wind gust speed)